Time;durP1;ratioP1;P1;durP2;ratioP2;P2;SDS_P1;SDS_P2;PMS_P1;PMS_P2;Temp;Humidity;BMP_temperature;BMP_pressure;BME280_temperature;BME280_humidity;BME280_pressure;Samples;Min_cycle;Max_cycle;Signal;HPM_P1;HPM_P2
2023/02/11 00:00:07;;;;;;;;;;;1.90;99.90;2.60;101677.00;;;;338811;28;92454;-89
2023/02/11 00:00:19;;;;;;;;;;;2.00;99.90;2.60;101682.00;;;;337902;28;83499;-89
2023/02/11 00:00:30;;;;;;;;;;;1.90;99.90;2.50;101684.00;;;;339053;28;89422;-88
2023/02/11 00:00:42;;;;;;;;;;;1.90;99.90;2.60;101679.00;;;;339269;28;82613;-88
2023/02/11 00:00:54;;;;;;;;;;;1.90;99.90;2.60;101680.00;;;;338897;28;92498;-88
2023/02/11 00:01:11;;;;;;;;;;;1.90;99.90;2.50;101680.00;;;;335472;29;82593;-89
2023/02/11 00:01:30;;;;;;;;;;;1.90;99.90;2.30;101681.00;;;;337556;28;90690;-89
2023/02/11 00:01:42;;;;;;;;;;;1.90;99.90;2.30;101682.00;;;;338162;28;82969;-88
2023/02/11 00:01:54;;;;;;;;;;;1.90;99.90;2.50;101679.00;;;;336454;28;90840;-88
2023/02/11 00:02:07;;;;;;;;;;;1.90;99.90;2.60;101678.00;;;;337893;28;83564;-88
2023/02/11 00:02:18;;;;;;;;;;;1.90;99.90;2.70;101680.00;;;;337599;28;91732;-87
2023/02/11 00:02:31;;;;;;;;;;;1.90;99.90;2.50;101677.00;;;;338053;28;83496;-88
2023/02/11 00:02:43;;;;;;;;;;;1.90;99.90;2.60;101673.00;;;;338981;28;92104;-88
2023/02/11 00:02:58;;;;;;;;;;;1.90;99.90;2.60;101680.00;;;;336869;28;83299;-88
2023/02/11 00:03:10;;;;;;;;;;;1.90;99.90;2.50;101686.00;;;;338697;28;92563;-89
2023/02/11 00:03:22;;;;;;;;;;;1.90;99.90;2.50;101677.00;;;;339439;28;82445;-88
2023/02/11 00:03:34;;;;;;;;;;;1.90;99.90;2.60;101682.00;;;;340091;28;91262;-88
2023/02/11 00:03:45;;;;;;;;;;;1.90;99.90;2.60;101680.00;;;;338072;28;82537;-89
2023/02/11 00:03:57;;;;;;;;;;;1.90;99.90;2.60;101677.00;;;;336344;28;91616;-88
2023/02/11 00:04:09;;;;;;;;;;;1.90;99.90;2.60;101665.00;;;;340626;28;83448;-88
2023/02/11 00:04:21;;;;;;;;;;;1.90;99.90;2.60;101678.00;;;;340256;28;90425;-88
2023/02/11 00:04:33;;;;;;;;;;;1.90;99.90;2.60;101679.00;;;;339408;28;83438;-88
2023/02/11 00:04:45;;;;;;;;;;;1.90;99.90;2.60;101677.00;;;;337622;28;91331;-89
2023/02/11 00:04:56;;;;;;;;;;;1.90;99.90;2.70;101675.00;;;;336873;28;83392;-89
2023/02/11 00:05:08;;;;;;;;;;;1.90;99.90;2.70;101673.00;;;;340209;28;91549;-88
2023/02/11 00:05:20;;;;;;;;;;;1.90;99.90;2.70;101682.00;;;;340632;28;83312;-88
2023/02/11 00:05:32;;;;;;;;;;;1.90;99.90;2.60;101679.00;;;;338892;28;91445;-89
2023/02/11 00:05:44;;;;;;;;;;;1.90;99.90;2.60;101675.00;;;;339349;28;82562;-89
2023/02/11 00:05:59;;;;;;;;;;;1.90;99.90;2.50;101672.00;;;;340360;28;91265;-88
2023/02/11 00:06:11;;;;;;;;;;;1.90;99.90;2.40;101664.00;;;;339409;28;83274;-88
2023/02/11 00:06:23;;;;;;;;;;;1.80;99.90;2.40;101671.00;;;;341608;28;90264;-88
2023/02/11 00:06:35;;;;;;;;;;;1.80;99.90;2.50;101670.00;;;;339404;28;83573;-88
2023/02/11 00:06:47;;;;;;;;;;;1.80;99.90;2.50;101677.00;;;;338649;28;89130;-88
2023/02/11 00:06:59;;;;;;;;;;;1.80;99.90;2.50;101674.00;;;;342049;28;83437;-88
2023/02/11 00:07:10;;;;;;;;;;;1.80;99.90;2.60;101677.00;;;;337515;28;93581;-88
2023/02/11 00:07:22;;;;;;;;;;;1.80;99.90;2.50;101684.00;;;;339337;28;83396;-88
2023/02/11 00:07:34;;;;;;;;;;;1.80;99.90;2.40;101675.00;;;;340335;28;90675;-88
2023/02/11 00:07:46;;;;;;;;;;;1.80;99.90;2.30;101682.00;;;;336613;28;82730;-88
2023/02/11 00:07:57;;;;;;;;;;;1.80;99.90;2.20;101668.00;;;;337449;28;91296;-89
2023/02/11 00:08:09;;;;;;;;;;;1.80;99.90;2.20;101676.00;;;;337885;28;82764;-88
2023/02/11 00:08:21;;;;;;;;;;;1.70;99.90;2.10;101681.00;;;;338953;28;89783;-88
2023/02/11 00:08:33;;;;;;;;;;;1.70;99.90;2.30;101667.00;;;;339289;28;83446;-88
2023/02/11 00:08:44;;;;;;;;;;;1.70;99.90;2.50;101667.00;;;;336207;28;91369;-88
2023/02/11 00:08:57;;;;;;;;;;;1.70;99.90;2.40;101664.00;;;;339445;28;83449;-88
2023/02/11 00:09:09;;;;;;;;;;;1.80;99.90;2.50;101674.00;;;;338909;28;90040;-88
2023/02/11 00:09:21;;;;;;;;;;;1.70;99.90;2.50;101665.00;;;;340687;28;82446;-88
2023/02/11 00:09:32;;;;;;;;;;;1.80;99.90;2.60;101671.00;;;;338928;28;90617;-88
2023/02/11 00:09:44;;;;;;;;;;;1.70;99.90;2.50;101672.00;;;;340741;28;83483;-88
2023/02/11 00:09:56;;;;;;;;;;;1.80;99.90;2.50;101671.00;;;;340334;28;91253;-88
2023/02/11 00:10:08;;;;;;;;;;;1.70;99.90;2.60;101669.00;;;;339293;28;83442;-89
2023/02/11 00:10:20;;;;;;;;;;;1.80;99.90;2.60;101675.00;;;;336349;28;90944;-88
2023/02/11 00:10:31;;;;;;;;;;;1.80;99.90;2.60;101668.00;;;;339390;28;83424;-89
2023/02/11 00:10:45;;;;;;;;;;;1.70;99.90;2.70;101670.00;;;;339971;28;89489;-89
2023/02/11 00:10:57;;;;;;;;;;;1.80;99.90;2.60;101671.00;;;;342036;28;83468;-88
2023/02/11 00:11:14;;;;;;;;;;;1.80;99.90;2.50;101669.00;;;;338845;28;92494;-88
2023/02/11 00:11:29;;;;;;;;;;;1.80;99.90;2.40;101662.00;;;;339339;28;83695;-88
2023/02/11 00:11:41;;;;;;;;;;;1.80;99.90;2.50;101658.00;;;;340284;28;90410;-88
2023/02/11 00:11:53;;;;;;;;;;;1.70;99.90;2.40;101668.00;;;;340809;28;83333;-88
2023/02/11 00:12:04;;;;;;;;;;;1.80;99.90;2.50;101665.00;;;;338908;28;91434;-89
2023/02/11 00:12:18;;;;;;;;;;;1.70;99.90;2.60;101664.00;;;;338006;28;83489;-88
2023/02/11 00:12:30;;;;;;;;;;;1.80;99.90;2.60;101658.00;;;;340286;28;91696;-88
2023/02/11 00:12:42;;;;;;;;;;;1.80;99.90;2.70;101655.00;;;;340617;28;82551;-88
2023/02/11 00:12:53;;;;;;;;;;;1.80;99.90;2.60;101662.00;;;;340275;28;92117;-89
2023/02/11 00:13:05;;;;;;;;;;;1.80;99.90;2.50;101667.00;;;;339365;28;83424;-89
2023/02/11 00:13:17;;;;;;;;;;;1.80;99.90;2.60;101659.00;;;;338910;28;92244;-89
2023/02/11 00:13:28;;;;;;;;;;;1.80;99.90;2.60;101661.00;;;;339252;28;83456;-89
2023/02/11 00:13:41;;;;;;;;;;;1.80;99.90;2.60;101660.00;;;;338987;28;89129;-88
2023/02/11 00:13:53;;;;;;;;;;;1.80;99.90;2.50;101664.00;;;;338075;28;83269;-89
2023/02/11 00:14:06;;;;;;;;;;;1.80;99.90;2.50;101665.00;;;;336227;28;91630;-89
2023/02/11 00:14:18;;;;;;;;;;;1.80;99.90;2.40;101664.00;;;;339333;28;83464;-89
2023/02/11 00:14:30;;;;;;;;;;;1.80;99.90;2.50;101649.00;;;;340047;28;91532;-88
2023/02/11 00:14:42;;;;;;;;;;;1.80;99.90;2.30;101669.00;;;;340524;28;82582;-88
2023/02/11 00:14:53;;;;;;;;;;;1.80;99.90;2.30;101664.00;;;;336443;28;89039;-88
2023/02/11 00:15:06;;;;;;;;;;;1.80;99.90;2.20;101663.00;;;;339389;28;83406;-89
2023/02/11 00:15:20;;;;;;;;;;;1.80;99.90;2.30;101675.00;;;;338859;28;91733;-89
2023/02/11 00:15:31;;;;;;;;;;;1.70;99.90;2.40;101669.00;;;;337994;28;82494;-88
2023/02/11 00:15:43;;;;;;;;;;;1.80;99.90;2.40;101673.00;;;;337471;28;91792;-88
2023/02/11 00:15:55;;;;;;;;;;;1.70;99.90;2.50;101669.00;;;;340746;28;83479;-88
2023/02/11 00:16:08;;;;;;;;;;;1.70;99.90;2.40;101667.00;;;;338804;28;91765;-88
2023/02/11 00:16:20;;;;;;;;;;;1.70;99.90;2.40;101679.00;;;;339355;28;82644;-89
2023/02/11 00:16:32;;;;;;;;;;;1.70;99.90;2.30;101668.00;;;;338889;28;91563;-89
2023/02/11 00:16:44;;;;;;;;;;;1.70;99.90;2.40;101664.00;;;;340593;28;82489;-89
2023/02/11 00:16:55;;;;;;;;;;;1.70;99.90;2.40;101664.00;;;;338998;28;91212;-89
2023/02/11 00:17:07;;;;;;;;;;;1.70;99.90;2.40;101670.00;;;;339352;28;83346;-88
2023/02/11 00:17:19;;;;;;;;;;;1.70;99.90;2.30;101667.00;;;;341555;28;91486;-89
2023/02/11 00:17:31;;;;;;;;;;;1.70;99.90;2.30;101661.00;;;;340481;28;83383;-88
2023/02/11 00:17:43;;;;;;;;;;;1.70;99.90;2.20;101666.00;;;;338700;28;91427;-89
2023/02/11 00:17:54;;;;;;;;;;;1.70;99.90;2.20;101666.00;;;;339411;28;83438;-88
2023/02/11 00:18:06;;;;;;;;;;;1.70;99.90;2.20;101670.00;;;;338854;28;90331;-89
2023/02/11 00:18:18;;;;;;;;;;;1.70;99.90;2.30;101669.00;;;;336695;28;82431;-88
2023/02/11 00:18:30;;;;;;;;;;;1.60;99.90;2.20;101664.00;;;;340285;28;91125;-88
2023/02/11 00:18:42;;;;;;;;;;;1.60;99.90;2.20;101666.00;;;;339284;28;83750;-89
2023/02/11 00:18:53;;;;;;;;;;;1.60;99.90;2.20;101658.00;;;;338978;28;91632;-89
2023/02/11 00:19:05;;;;;;;;;;;1.60;99.90;2.10;101668.00;;;;340745;28;82531;-89
2023/02/11 00:19:17;;;;;;;;;;;1.60;99.90;2.20;101665.00;;;;340158;28;92566;-89
2023/02/11 00:19:29;;;;;;;;;;;1.60;99.90;2.20;101665.00;;;;336660;28;83343;-89
2023/02/11 00:19:40;;;;;;;;;;;1.60;99.90;2.20;101666.00;;;;337627;28;90147;-88
2023/02/11 00:19:52;;;;;;;;;;;1.60;99.90;2.20;101671.00;;;;340753;28;82537;-88
2023/02/11 00:20:05;;;;;;;;;;;1.60;99.90;2.20;101667.00;;;;338988;28;88724;-88
2023/02/11 00:20:18;;;;;;;;;;;1.60;99.90;2.10;101671.00;;;;340697;28;83477;-89
2023/02/11 00:20:30;;;;;;;;;;;1.60;99.90;2.10;101669.00;;;;339094;28;87957;-89
2023/02/11 00:20:42;;;;;;;;;;;1.50;99.90;2.10;101666.00;;;;340619;28;82537;-89
2023/02/11 00:20:54;;;;;;;;;;;1.60;99.90;2.20;101676.00;;;;340266;28;91689;-88
2023/02/11 00:21:07;;;;;;;;;;;1.50;99.90;2.20;101661.00;;;;336641;28;83438;-88
2023/02/11 00:21:23;;;;;;;;;;;1.50;99.90;2.10;101669.00;;;;338906;28;92252;-89
2023/02/11 00:21:35;;;;;;;;;;;1.60;99.90;2.10;101664.00;;;;339389;28;82524;-88
2023/02/11 00:21:47;;;;;;;;;;;1.50;99.90;2.00;101667.00;;;;338922;28;91637;-88
2023/02/11 00:21:59;;;;;;;;;;;1.50;99.90;2.00;101671.00;;;;340746;28;82530;-89
2023/02/11 00:22:10;;;;;;;;;;;1.50;99.90;2.20;101665.00;;;;341643;28;90287;-88
2023/02/11 00:22:22;;;;;;;;;;;1.50;99.90;2.10;101659.00;;;;339371;28;82584;-89
2023/02/11 00:22:34;;;;;;;;;;;1.50;99.90;2.20;101668.00;;;;338807;28;90133;-89
2023/02/11 00:22:46;;;;;;;;;;;1.50;99.90;2.20;101666.00;;;;339318;28;83425;-88
2023/02/11 00:22:58;;;;;;;;;;;1.50;99.90;2.10;101672.00;;;;339115;28;88715;-88
2023/02/11 00:23:09;;;;;;;;;;;1.50;99.90;2.10;101663.00;;;;340695;28;83339;-89
2023/02/11 00:23:21;;;;;;;;;;;1.50;99.90;2.00;101665.00;;;;338785;28;92504;-88
2023/02/11 00:23:33;;;;;;;;;;;1.50;99.90;2.00;101662.00;;;;338118;28;83364;-88
2023/02/11 00:23:45;;;;;;;;;;;1.50;99.90;2.10;101672.00;;;;337596;28;91693;-88
2023/02/11 00:23:58;;;;;;;;;;;1.50;99.90;2.20;101662.00;;;;339400;28;82274;-88
2023/02/11 00:24:10;;;;;;;;;;;1.50;99.90;2.10;101667.00;;;;337646;28;87680;-89
2023/02/11 00:24:22;;;;;;;;;;;1.50;99.90;2.00;101657.00;;;;342021;28;83360;-88
2023/02/11 00:24:35;;;;;;;;;;;1.40;99.90;2.00;101658.00;;;;340328;28;91552;-88
2023/02/11 00:24:46;;;;;;;;;;;1.50;99.90;2.00;101667.00;;;;341984;28;83503;-88
2023/02/11 00:24:58;;;;;;;;;;;1.40;99.90;2.10;101668.00;;;;341655;28;90491;-88
2023/02/11 00:25:10;;;;;;;;;;;1.40;99.90;2.10;101672.00;;;;337694;28;84062;-88
2023/02/11 00:25:22;;;;;;;;;;;1.40;99.90;2.10;101670.00;;;;334891;29;92659;-88
2023/02/11 00:25:37;;;;;;;;;;;1.40;99.90;2.00;101662.00;;;;339470;28;82484;-88
2023/02/11 00:25:49;;;;;;;;;;;1.40;99.90;2.00;101663.00;;;;339006;28;90463;-88
2023/02/11 00:26:01;;;;;;;;;;;1.50;99.90;2.10;101665.00;;;;338042;28;82568;-89
2023/02/11 00:26:23;;;;;;;;;;;1.50;99.90;2.00;101674.00;;;;338891;28;90178;-88
2023/02/11 00:26:35;;;;;;;;;;;1.40;99.90;2.00;101663.00;;;;335435;29;82395;-89
2023/02/11 00:26:47;;;;;;;;;;;1.40;99.90;2.00;101666.00;;;;337667;28;87985;-88
2023/02/11 00:26:59;;;;;;;;;;;1.40;99.90;2.10;101665.00;;;;339020;28;83518;-88
2023/02/11 00:27:10;;;;;;;;;;;1.40;99.90;2.00;101666.00;;;;338975;28;91589;-88
2023/02/11 00:27:22;;;;;;;;;;;1.40;99.90;2.00;101666.00;;;;339257;28;83183;-88
2023/02/11 00:27:35;;;;;;;;;;;1.40;99.90;2.00;101658.00;;;;337571;28;91429;-88
2023/02/11 00:27:47;;;;;;;;;;;1.40;99.90;2.00;101667.00;;;;338992;28;83578;-88
2023/02/11 00:27:59;;;;;;;;;;;1.40;99.90;1.90;101661.00;;;;340297;28;91247;-88
2023/02/11 00:28:11;;;;;;;;;;;1.40;99.90;2.00;101662.00;;;;340635;28;83334;-88
2023/02/11 00:28:23;;;;;;;;;;;1.40;99.90;2.00;101667.00;;;;341611;28;91179;-87
2023/02/11 00:28:35;;;;;;;;;;;1.40;99.90;1.90;101657.00;;;;340689;28;83302;-88
2023/02/11 00:28:47;;;;;;;;;;;1.40;99.90;1.90;101668.00;;;;337534;28;91551;-88
2023/02/11 00:28:59;;;;;;;;;;;1.40;99.90;1.80;101669.00;;;;339280;28;83465;-89
2023/02/11 00:29:11;;;;;;;;;;;1.40;99.90;2.00;101667.00;;;;338965;28;91394;-88
2023/02/11 00:29:23;;;;;;;;;;;1.40;99.90;2.10;101670.00;;;;340678;28;82465;-88
2023/02/11 00:29:36;;;;;;;;;;;1.40;99.90;2.20;101661.00;;;;340306;28;91332;-88
2023/02/11 00:29:47;;;;;;;;;;;1.40;99.90;2.20;101667.00;;;;339351;28;83390;-89
2023/02/11 00:30:01;;;;;;;;;;;1.40;99.90;2.20;101660.00;;;;338909;28;91083;-88
2023/02/11 00:30:12;;;;;;;;;;;1.40;99.90;2.20;101662.00;;;;340449;28;83482;-89
2023/02/11 00:30:24;;;;;;;;;;;1.40;99.90;2.10;101670.00;;;;337671;28;91323;-88
2023/02/11 00:30:36;;;;;;;;;;;1.40;99.90;2.10;101658.00;;;;339420;28;83317;-88
2023/02/11 00:30:57;;;;;;;;;;;1.40;99.90;2.00;101659.00;;;;340167;28;92857;-89
2023/02/11 00:31:10;;;;;;;;;;;1.40;99.90;2.10;101662.00;;;;339258;28;83413;-88
2023/02/11 00:31:22;;;;;;;;;;;1.40;99.90;2.10;101662.00;;;;337565;28;90587;-88
2023/02/11 00:31:34;;;;;;;;;;;1.40;99.90;2.10;101668.00;;;;340654;28;83358;-88
2023/02/11 00:31:45;;;;;;;;;;;1.40;99.90;2.10;101662.00;;;;340175;28;92442;-89
2023/02/11 00:31:57;;;;;;;;;;;1.40;99.90;2.20;101665.00;;;;338087;28;82656;-89
2023/02/11 00:32:09;;;;;;;;;;;1.30;99.90;2.20;101661.00;;;;340164;28;91497;-88
2023/02/11 00:32:21;;;;;;;;;;;1.40;99.90;2.10;101662.00;;;;340685;28;83652;-88
2023/02/11 00:32:33;;;;;;;;;;;1.40;99.90;2.00;101662.00;;;;340252;28;91333;-88
2023/02/11 00:32:45;;;;;;;;;;;1.30;99.90;2.00;101659.00;;;;340501;28;83431;-88
2023/02/11 00:32:56;;;;;;;;;;;1.40;99.90;1.90;101669.00;;;;337732;28;90206;-88
2023/02/11 00:33:09;;;;;;;;;;;1.40;99.90;1.90;101658.00;;;;338077;28;83461;-89
2023/02/11 00:33:20;;;;;;;;;;;1.40;99.90;1.80;101666.00;;;;338940;28;87814;-89
2023/02/11 00:33:32;;;;;;;;;;;1.40;99.90;1.80;101671.00;;;;339063;28;83722;-89
2023/02/11 00:33:44;;;;;;;;;;;1.30;99.90;1.80;101667.00;;;;337456;28;93390;-88
2023/02/11 00:33:56;;;;;;;;;;;1.30;99.90;1.90;101666.00;;;;340778;28;83446;-88
2023/02/11 00:34:08;;;;;;;;;;;1.30;99.90;2.00;101665.00;;;;338933;28;91451;-88
2023/02/11 00:34:19;;;;;;;;;;;1.30;99.90;2.10;101666.00;;;;338036;28;83423;-88
2023/02/11 00:34:31;;;;;;;;;;;1.30;99.90;2.00;101660.00;;;;340286;28;91511;-88
2023/02/11 00:34:43;;;;;;;;;;;1.30;99.90;2.00;101660.00;;;;340578;28;83352;-88
2023/02/11 00:34:55;;;;;;;;;;;1.30;99.90;2.00;101665.00;;;;340264;28;91480;-88
2023/02/11 00:35:07;;;;;;;;;;;1.30;99.90;2.00;101657.00;;;;340742;28;82272;-88
2023/02/11 00:35:18;;;;;;;;;;;1.30;99.90;1.90;101664.00;;;;338897;28;91973;-88
2023/02/11 00:35:30;;;;;;;;;;;1.30;99.90;1.90;101663.00;;;;339372;28;83550;-89
2023/02/11 00:35:42;;;;;;;;;;;1.30;99.90;2.00;101658.00;;;;338868;28;92522;-88
2023/02/11 00:35:53;;;;;;;;;;;1.30;99.90;2.00;101658.00;;;;340355;28;83454;-88
2023/02/11 00:36:07;;;;;;;;;;;1.30;99.90;2.00;101666.00;;;;336201;28;91313;-88
2023/02/11 00:36:20;;;;;;;;;;;1.30;99.90;1.90;101660.00;;;;339373;28;83441;-89
2023/02/11 00:36:32;;;;;;;;;;;1.30;99.90;1.90;101660.00;;;;340265;28;91390;-88
2023/02/11 00:36:44;;;;;;;;;;;1.30;99.90;1.90;101668.00;;;;337931;28;83465;-88
2023/02/11 00:36:56;;;;;;;;;;;1.30;99.90;1.90;101657.00;;;;338990;28;91413;-88
2023/02/11 00:37:08;;;;;;;;;;;1.30;99.90;1.90;101660.00;;;;339425;28;83436;-88
2023/02/11 00:37:20;;;;;;;;;;;1.30;99.90;1.80;101658.00;;;;340262;28;90228;-88
2023/02/11 00:37:35;;;;;;;;;;;1.30;99.90;1.80;101664.00;;;;340678;28;83428;-88
2023/02/11 00:37:46;;;;;;;;;;;1.30;99.90;1.80;101670.00;;;;337541;28;92338;-88
2023/02/11 00:37:58;;;;;;;;;;;1.30;99.90;1.80;101669.00;;;;342129;28;83490;-88
2023/02/11 00:38:10;;;;;;;;;;;1.30;99.90;1.80;101662.00;;;;340045;28;91170;-88
2023/02/11 00:38:22;;;;;;;;;;;1.30;99.90;1.80;101657.00;;;;340708;28;83425;-89
2023/02/11 00:38:33;;;;;;;;;;;1.30;99.90;1.80;101660.00;;;;337631;28;92028;-88
2023/02/11 00:38:45;;;;;;;;;;;1.30;99.90;1.80;101659.00;;;;336658;28;83444;-89
2023/02/11 00:38:57;;;;;;;;;;;1.30;99.90;1.90;101655.00;;;;338926;28;90903;-89
2023/02/11 00:39:09;;;;;;;;;;;1.30;99.90;2.00;101664.00;;;;340713;28;83403;-88
2023/02/11 00:39:21;;;;;;;;;;;1.20;99.90;2.00;101655.00;;;;339095;28;87656;-88
2023/02/11 00:39:33;;;;;;;;;;;1.20;99.90;2.00;101662.00;;;;338079;28;82495;-89
2023/02/11 00:39:45;;;;;;;;;;;1.30;99.90;2.00;101659.00;;;;338954;28;91662;-88
2023/02/11 00:39:57;;;;;;;;;;;1.30;99.90;2.00;101661.00;;;;340702;28;82679;-89
2023/02/11 00:40:09;;;;;;;;;;;1.20;99.90;2.00;101661.00;;;;341499;28;90611;-89
2023/02/11 00:40:21;;;;;;;;;;;1.20;99.90;2.00;101660.00;;;;342025;28;83335;-89
2023/02/11 00:40:33;;;;;;;;;;;1.30;99.90;1.90;101657.00;;;;340321;28;90190;-89
2023/02/11 00:40:45;;;;;;;;;;;1.20;99.90;1.90;101669.00;;;;340613;28;82657;-88
2023/02/11 00:40:56;;;;;;;;;;;1.30;99.90;1.90;101658.00;;;;338924;28;90342;-88
2023/02/11 00:41:08;;;;;;;;;;;1.20;99.90;2.00;101665.00;;;;341964;28;83371;-88
2023/02/11 00:41:20;;;;;;;;;;;1.30;99.90;1.90;101667.00;;;;338536;28;91037;-88
2023/02/11 00:41:32;;;;;;;;;;;1.30;99.90;1.90;101657.00;;;;336654;28;83403;-89
2023/02/11 00:41:44;;;;;;;;;;;1.30;99.90;1.90;101665.00;;;;340145;28;92312;-89
2023/02/11 00:41:56;;;;;;;;;;;1.30;99.90;1.90;101669.00;;;;340671;28;83201;-88
2023/02/11 00:42:08;;;;;;;;;;;1.30;99.90;1.90;101662.00;;;;338889;28;91713;-89
2023/02/11 00:42:19;;;;;;;;;;;1.30;99.90;1.90;101668.00;;;;340696;28;82514;-88
2023/02/11 00:42:31;;;;;;;;;;;1.30;99.90;1.90;101665.00;;;;340384;28;89001;-89
2023/02/11 00:42:43;;;;;;;;;;;1.20;99.90;1.90;101652.00;;;;338013;28;83397;-89
2023/02/11 00:42:55;;;;;;;;;;;1.20;99.90;1.90;101661.00;;;;340311;28;91643;-88
2023/02/11 00:43:06;;;;;;;;;;;1.20;99.90;2.00;101667.00;;;;338111;28;83466;-88
2023/02/11 00:43:18;;;;;;;;;;;1.20;99.90;1.90;101662.00;;;;337714;28;90471;-88
2023/02/11 00:43:30;;;;;;;;;;;1.20;99.90;1.80;101665.00;;;;340609;28;83437;-88
2023/02/11 00:43:42;;;;;;;;;;;1.20;99.90;1.80;101655.00;;;;337467;28;92621;-89
2023/02/11 00:43:54;;;;;;;;;;;1.20;99.90;1.80;101666.00;;;;340822;28;83283;-88
2023/02/11 00:44:05;;;;;;;;;;;1.20;99.90;1.80;101665.00;;;;341469;28;91559;-89
2023/02/11 00:44:17;;;;;;;;;;;1.20;99.90;1.90;101653.00;;;;340656;28;83594;-89
2023/02/11 00:44:29;;;;;;;;;;;1.20;99.90;1.80;101658.00;;;;340202;28;91373;-88
2023/02/11 00:44:41;;;;;;;;;;;1.20;99.90;1.80;101666.00;;;;340536;28;82418;-89
2023/02/11 00:44:53;;;;;;;;;;;1.20;99.90;1.80;101662.00;;;;340074;28;91373;-89
2023/02/11 00:45:05;;;;;;;;;;;1.20;99.90;1.80;101657.00;;;;337975;28;82452;-88
2023/02/11 00:45:17;;;;;;;;;;;1.20;99.90;1.70;101666.00;;;;338854;28;91361;-88
2023/02/11 00:45:29;;;;;;;;;;;1.20;99.90;1.70;101667.00;;;;341961;28;82471;-88
2023/02/11 00:45:41;;;;;;;;;;;1.20;99.90;1.60;101673.00;;;;341459;28;92863;-89
2023/02/11 00:45:53;;;;;;;;;;;1.20;99.90;1.60;101664.00;;;;340804;28;83356;-88
2023/02/11 00:46:05;;;;;;;;;;;1.20;99.90;1.70;101667.00;;;;338890;28;90142;-88
2023/02/11 00:46:17;;;;;;;;;;;1.20;99.90;1.60;101669.00;;;;342030;28;83431;-88
2023/02/11 00:46:29;;;;;;;;;;;1.20;99.90;1.60;101665.00;;;;340304;28;90452;-88
2023/02/11 00:46:41;;;;;;;;;;;1.20;99.90;1.80;101665.00;;;;339394;28;82692;-89
2023/02/11 00:46:52;;;;;;;;;;;1.20;99.90;1.90;101656.00;;;;341567;28;92233;-88
2023/02/11 00:47:04;;;;;;;;;;;1.20;99.90;2.00;101659.00;;;;340732;28;83178;-89
2023/02/11 00:47:16;;;;;;;;;;;1.20;99.90;2.10;101660.00;;;;340309;28;90585;-89
2023/02/11 00:47:28;;;;;;;;;;;1.10;99.90;2.10;101666.00;;;;338055;28;83471;-89
2023/02/11 00:47:39;;;;;;;;;;;1.10;99.90;2.10;101659.00;;;;338962;28;88650;-88
2023/02/11 00:47:51;;;;;;;;;;;1.20;99.90;2.00;101657.00;;;;337966;28;83448;-88
2023/02/11 00:48:03;;;;;;;;;;;1.20;99.90;1.90;101663.00;;;;341544;28;90545;-89
2023/02/11 00:48:15;;;;;;;;;;;1.20;99.90;2.00;101669.00;;;;339042;28;83632;-88
2023/02/11 00:48:26;;;;;;;;;;;1.10;99.90;2.00;101664.00;;;;334947;29;89115;-89
2023/02/11 00:48:38;;;;;;;;;;;1.20;99.90;2.00;101659.00;;;;340673;28;83414;-88
2023/02/11 00:48:52;;;;;;;;;;;1.20;99.90;1.90;101664.00;;;;341624;28;90345;-89
2023/02/11 00:49:03;;;;;;;;;;;1.20;99.90;1.90;101658.00;;;;341954;28;83561;-88
2023/02/11 00:49:16;;;;;;;;;;;1.20;99.90;1.90;101664.00;;;;340310;28;88547;-88
2023/02/11 00:49:28;;;;;;;;;;;1.20;99.90;1.90;101666.00;;;;339265;28;83424;-89
2023/02/11 00:49:40;;;;;;;;;;;1.20;99.90;1.80;101653.00;;;;338791;28;92311;-89
2023/02/11 00:49:51;;;;;;;;;;;1.20;99.90;1.90;101666.00;;;;340713;28;83192;-88
2023/02/11 00:50:04;;;;;;;;;;;1.10;99.90;1.80;101659.00;;;;337584;28;91258;-89
2023/02/11 00:50:16;;;;;;;;;;;1.10;99.90;1.80;101657.00;;;;339318;28;82583;-88
2023/02/11 00:50:27;;;;;;;;;;;1.20;99.90;1.80;101657.00;;;;340256;28;91365;-88
2023/02/11 00:50:39;;;;;;;;;;;1.20;99.90;1.80;101654.00;;;;338927;28;83402;-88
2023/02/11 00:50:51;;;;;;;;;;;1.10;99.90;1.80;101661.00;;;;337487;28;91606;-89
2023/02/11 00:51:03;;;;;;;;;;;1.10;99.90;1.80;101659.00;;;;339405;28;83354;-88
2023/02/11 00:51:15;;;;;;;;;;;1.10;99.90;1.80;101656.00;;;;340309;28;87626;-88
2023/02/11 00:51:27;;;;;;;;;;;1.10;99.90;1.80;101658.00;;;;340666;28;83531;-88
2023/02/11 00:51:38;;;;;;;;;;;1.10;99.90;1.80;101659.00;;;;340180;28;90112;-88
2023/02/11 00:51:50;;;;;;;;;;;1.10;99.90;1.80;101654.00;;;;338024;28;82623;-88
2023/02/11 00:52:02;;;;;;;;;;;1.10;99.90;1.80;101656.00;;;;340176;28;91273;-88
2023/02/11 00:52:14;;;;;;;;;;;1.10;99.90;1.70;101655.00;;;;340501;28;83712;-88
2023/02/11 00:52:26;;;;;;;;;;;1.10;99.90;1.80;101656.00;;;;338913;28;91645;-88
2023/02/11 00:52:37;;;;;;;;;;;1.10;99.90;1.80;101653.00;;;;340730;28;82379;-88
2023/02/11 00:52:49;;;;;;;;;;;1.10;99.90;1.80;101650.00;;;;337470;28;91441;-88
2023/02/11 00:53:01;;;;;;;;;;;1.10;99.90;1.80;101658.00;;;;339351;28;83263;-88
2023/02/11 00:53:13;;;;;;;;;;;1.10;99.90;1.70;101659.00;;;;338811;28;92139;-88
2023/02/11 00:53:24;;;;;;;;;;;1.10;99.90;1.70;101659.00;;;;339342;28;83442;-89
2023/02/11 00:53:36;;;;;;;;;;;1.10;99.90;1.80;101658.00;;;;340235;28;88968;-88
2023/02/11 00:53:48;;;;;;;;;;;1.10;99.90;1.90;101661.00;;;;340668;28;83441;-88
2023/02/11 00:54:00;;;;;;;;;;;1.10;99.90;1.80;101660.00;;;;338804;28;91191;-88
2023/02/11 00:54:11;;;;;;;;;;;1.10;99.90;1.60;101660.00;;;;341817;28;82556;-88
2023/02/11 00:54:23;;;;;;;;;;;1.10;99.90;1.60;101651.00;;;;340182;28;91813;-88
2023/02/11 00:54:35;;;;;;;;;;;1.10;99.90;1.70;101658.00;;;;336830;28;82502;-88
2023/02/11 00:54:47;;;;;;;;;;;1.10;99.90;1.80;101652.00;;;;340189;28;90182;-88
2023/02/11 00:54:58;;;;;;;;;;;1.10;99.90;1.90;101644.00;;;;339346;28;83448;-88
2023/02/11 00:55:10;;;;;;;;;;;1.10;99.90;1.90;101651.00;;;;338927;28;92287;-88
2023/02/11 00:55:22;;;;;;;;;;;1.10;99.90;1.70;101660.00;;;;339330;28;82563;-88
2023/02/11 00:55:34;;;;;;;;;;;1.10;99.90;1.80;101647.00;;;;337484;28;93127;-88
2023/02/11 00:55:46;;;;;;;;;;;1.10;99.90;1.80;101646.00;;;;337897;28;83468;-88
2023/02/11 00:55:58;;;;;;;;;;;1.10;99.90;1.80;101647.00;;;;340243;28;92048;-88
2023/02/11 00:56:09;;;;;;;;;;;1.10;99.90;1.80;101652.00;;;;340466;28;83573;-88
2023/02/11 00:56:21;;;;;;;;;;;1.10;99.90;1.70;101646.00;;;;337265;28;91647;-88
2023/02/11 00:56:33;;;;;;;;;;;1.10;99.90;1.70;101648.00;;;;340664;28;83337;-88
2023/02/11 00:56:45;;;;;;;;;;;1.10;99.90;1.60;101649.00;;;;340146;28;91915;-88
2023/02/11 00:56:57;;;;;;;;;;;1.10;99.90;1.60;101653.00;;;;340643;28;83491;-88
2023/02/11 00:57:08;;;;;;;;;;;1.00;99.90;1.80;101643.00;;;;340239;28;91666;-88
2023/02/11 00:57:20;;;;;;;;;;;1.10;99.90;1.90;101649.00;;;;339329;28;82695;-88
2023/02/11 00:57:32;;;;;;;;;;;1.10;99.90;2.00;101644.00;;;;341518;28;92189;-88
2023/02/11 00:57:44;;;;;;;;;;;1.10;99.90;1.90;101651.00;;;;339333;28;82493;-88
2023/02/11 00:57:57;;;;;;;;;;;1.10;99.90;1.80;101638.00;;;;338797;28;91262;-88
2023/02/11 00:58:09;;;;;;;;;;;1.10;99.90;1.80;101639.00;;;;340528;28;82730;-88
2023/02/11 00:58:21;;;;;;;;;;;1.10;99.90;1.80;101645.00;;;;338792;28;91151;-88
2023/02/11 00:58:33;;;;;;;;;;;1.10;99.90;1.70;101655.00;;;;340645;28;82412;-88
2023/02/11 00:58:44;;;;;;;;;;;1.10;99.90;1.70;101644.00;;;;338531;28;90660;-88
2023/02/11 00:58:56;;;;;;;;;;;1.10;99.90;1.60;101640.00;;;;338077;28;83560;-88
2023/02/11 00:59:08;;;;;;;;;;;1.10;99.90;1.60;101647.00;;;;340499;28;91729;-88
2023/02/11 00:59:20;;;;;;;;;;;1.10;99.90;1.50;101657.00;;;;339172;28;83542;-88
2023/02/11 00:59:32;;;;;;;;;;;1.00;99.90;1.50;101652.00;;;;337456;28;92526;-88
2023/02/11 00:59:43;;;;;;;;;;;1.00;99.90;1.50;101654.00;;;;337970;28;82556;-88
2023/02/11 00:59:55;;;;;;;;;;;1.00;99.90;1.50;101651.00;;;;337638;28;89048;-88
2023/02/11 01:00:08;;;;;;;;;;;1.10;99.90;1.60;101654.00;;;;337935;28;82612;-88
2023/02/11 01:00:21;;;;;;;;;;;1.00;99.90;1.60;101652.00;;;;336143;28;90200;-88
2023/02/11 01:00:32;;;;;;;;;;;1.00;99.90;1.60;101653.00;;;;340755;28;82510;-88
2023/02/11 01:00:44;;;;;;;;;;;1.00;99.90;1.60;101657.00;;;;337501;28;91367;-88